Lisbon — CQGZ — position and weather

sailwx.info

Track history (hours):
 
Tides and Currents Weather Stations Pressure Air Temp Water Temp Dewpoint Dewpoint Depression Visibility Wind Speed Wind Dir Waves Ship Positions

Lisbon

Last reported at 2018-Jan-17 00:00 UTC. Time now 2018-Jan-20 03:06 UTC.
Position N 33°12' E 026°48'.

Length 277 m; draft 11.5 m.

Type: Ship. MMSI: 255805675.

Wind from 270 at 16 knots

Barometer 1018.0 mb
Air temperature 17.0 ° C
Visibility: greater than 10.8 NM
Dewpoint 4.3 ° C
Water temperature 21.0 ° C

Date/timePositionNaut miles runAvg speedWind from/ knotsBaromVisibWave heightAir tempDewpointWater temp
2018-Jan-17 00:00N 33°12' E 026°48'33714.1 270 / 161018.010.8 17.0 4.321.0
2018-Jan-16 00:00N 34°48' E 020°18'34514.4 250 / 221025.010.8 15.0 1.219.0
2018-Jan-15 00:00N 36°24' E 013°30'   220 / 211022.010.8 14.0-0.419.0
2018-Jan-12 09:54N 36°06' W 004°22'1914.2
2018-Jan-12 08:35N 36°03' W 004°45'114.3
2018-Jan-12 08:30N 36°03' W 004°47'715.0
2018-Jan-12 08:01N 36°02' W 004°56'713.9
2018-Jan-12 07:31N 36°02' W 005°04'714.0
2018-Jan-12 07:00N 36°01' W 005°13'815.9
2018-Jan-12 06:31N 36°04' W 005°22'4 8.2
2018-Jan-12 06:01N 36°07' W 005°25'0 0.5
2018-Jan-12 05:29N 36°08' W 005°25'0 0.0
2018-Jan-12 04:58N 36°08' W 005°25'0 0.0
2018-Jan-12 04:30N 36°08' W 005°25'0 0.0
2018-Jan-12 03:56N 36°08' W 005°25'0 0.0
2018-Jan-12 03:28N 36°08' W 005°25'0 0.0
2018-Jan-12 02:58N 36°08' W 005°25'0 0.0
2018-Jan-12 02:30N 36°08' W 005°25'0 0.0
2018-Jan-12 02:00N 36°08' W 005°25'0 0.0
2018-Jan-12 01:30N 36°08' W 005°25'0 0.0
2018-Jan-12 01:00N 36°08' W 005°25'0 0.0
2018-Jan-12 00:30N 36°08' W 005°25'0 0.0
2018-Jan-11 23:59N 36°08' W 005°25'0 0.0
2018-Jan-11 23:30N 36°08' W 005°25'0 0.0
2018-Jan-11 23:00N 36°08' W 005°25'0 0.0
2018-Jan-11 22:29N 36°08' W 005°25'0 0.0
2018-Jan-11 21:58N 36°08' W 005°25'0 0.0
2018-Jan-11 21:22N 36°08' W 005°25'0 0.0
2018-Jan-11 20:58N 36°08' W 005°25'0 0.0
2018-Jan-11 20:28N 36°08' W 005°25'0 0.0
2018-Jan-11 19:58N 36°08' W 005°25'0 0.0
2018-Jan-11 19:30N 36°08' W 005°25'0 0.0
2018-Jan-11 18:57N 36°08' W 005°25'0 0.0
2018-Jan-11 18:30N 36°08' W 005°25'0 0.0
2018-Jan-11 18:00N 36°08' W 005°25'0 0.0
2018-Jan-11 17:30N 36°08' W 005°25'0 0.0
2018-Jan-11 16:56N 36°08' W 005°25'0 0.0
2018-Jan-11 16:29N 36°08' W 005°25'0 0.0
2018-Jan-11 15:59N 36°08' W 005°25'0 0.0
2018-Jan-11 15:29N 36°08' W 005°25'0 0.0
2018-Jan-11 14:55N 36°08' W 005°25'0 0.0
2018-Jan-11 14:28N 36°08' W 005°25'0 0.0
2018-Jan-11 13:58N 36°08' W 005°25'0 0.0
2018-Jan-11 13:28N 36°08' W 005°25'0 0.0
2018-Jan-11 12:58N 36°08' W 005°25'0 0.0
2018-Jan-11 12:29N 36°08' W 005°25'0 0.0
2018-Jan-11 12:00N 36°08' W 005°25'0 0.0
2018-Jan-11 11:15N 36°08' W 005°25'0 0.0
2018-Jan-11 11:00N 36°08' W 005°25'0 0.0
2018-Jan-11 10:30N 36°08' W 005°25'0 0.0
2018-Jan-11 09:59N 36°08' W 005°25'0 0.0
2018-Jan-11 09:26N 36°08' W 005°25'0 0.3
2018-Jan-11 09:00N 36°08' W 005°25'1 2.4
2018-Jan-11 08:30N 36°08' W 005°24'3 5.4
2018-Jan-11 08:00N 36°06' W 005°22'612.1
2018-Jan-11 07:30N 36°04' W 005°15'815.9
2018-Jan-11 07:00N 36°07' W 005°06'815.7
2018-Jan-11 06:30N 36°08' W 004°56'816.7
2018-Jan-11 06:00N 36°09' W 004°46'714.2
2018-Jan-11 05:30N 36°08' W 004°37'1 1.1
2018-Jan-11 04:57N 36°08' W 004°38'1 1.8
2018-Jan-11 04:30N 36°08' W 004°39'1 1.8
2018-Jan-11 03:59N 36°09' W 004°40'1 1.9
2018-Jan-11 03:26N 36°09' W 004°41'1 2.1
2018-Jan-11 03:00N 36°10' W 004°42'1 2.3
2018-Jan-11 02:30N 36°10' W 004°43'1 2.3
2018-Jan-11 01:59N 36°11' W 004°44'1 2.0
2018-Jan-11 01:30N 36°11' W 004°45'1 1.9
2018-Jan-11 01:00N 36°11' W 004°46'1 2.1
2018-Jan-11 00:30N 36°11' W 004°48'510.7
2018-Jan-11 00:00N 36°06' W 004°48'692.6 320 / 261025.010.8 14.0-0.419.0
2018-Jan-10 23:56N 36°12' W 004°49'1 2.3
2018-Jan-10 23:30N 36°12' W 004°51'1 2.2
2018-Jan-10 22:59N 36°12' W 004°52'1 2.6
2018-Jan-10 22:30N 36°12' W 004°54'1 2.7
2018-Jan-10 21:57N 36°12' W 004°55'1 2.5
2018-Jan-10 21:29N 36°11' W 004°57'1 2.6
2018-Jan-10 21:00N 36°11' W 004°58'1 2.4
2018-Jan-10 20:30N 36°10' W 004°60'1 2.1
2018-Jan-10 20:00N 36°10' W 005°01'1 2.1
2018-Jan-10 19:30N 36°09' W 005°02'1 2.2
2018-Jan-10 18:57N 36°09' W 005°03'1 2.5
2018-Jan-10 18:31N 36°08' W 005°04'2 3.6
2018-Jan-10 17:57N 36°07' W 005°02'3 7.2
2018-Jan-10 17:30N 36°06' W 004°58'4 7.1
2018-Jan-10 17:00N 36°07' W 004°54'612.7
2018-Jan-10 16:30N 36°08' W 004°46'713.9
2018-Jan-10 16:00N 36°08' W 004°37'511.0
2018-Jan-10 15:30N 36°08' W 004°31'7 9.9
2018-Jan-10 14:47N 36°09' W 004°22'7 2.6
2018-Jan-10 12:00N 36°12' W 004°30'21 2.4 270 / 211023.010.8 19.0 7.218.0
2018-Jan-10 03:19N 36°13' W 004°56'4 1.6
2018-Jan-10 00:45N 36°10' W 004°58'1 1.6
2018-Jan-10 00:22N 36°09' W 004°58'2 1.2
2018-Jan-09 22:58N 36°08' W 004°60'5 9.3
2018-Jan-09 22:27N 36°08' W 005°06'716.2
2018-Jan-09 22:00N 36°07' W 005°14'714.5
2018-Jan-09 21:30N 36°14' W 005°12'3 6.8
2018-Jan-09 21:00N 36°17' W 005°10'1 2.4
2018-Jan-09 20:30N 36°16' W 005°11'1 2.0
2018-Jan-09 20:00N 36°15' W 005°12'1 2.0
2018-Jan-09 19:30N 36°14' W 005°12'1 1.8
2018-Jan-09 19:00N 36°14' W 005°12'1 1.3
2018-Jan-09 18:30N 36°13' W 005°12'1 1.4
2018-Jan-09 18:00N 36°12' W 005°12'1 1.5
2018-Jan-09 17:30N 36°11' W 005°13'1 2.1
2018-Jan-09 17:00N 36°10' W 005°13'1 1.7
2018-Jan-09 16:30N 36°10' W 005°13'1 1.7
2018-Jan-09 16:00N 36°09' W 005°13'2 3.1
2018-Jan-09 15:28N 36°07' W 005°14'3 5.8
2018-Jan-09 15:00N 36°06' W 005°17'1 2.3
2018-Jan-09 14:30N 36°05' W 005°18'1 1.2
2018-Jan-09 14:00N 36°05' W 005°18'1 1.2
2018-Jan-09 13:30N 36°04' W 005°19'1 1.3
2018-Jan-09 13:00N 36°04' W 005°20'0 0.8
2018-Jan-09 12:30N 36°04' W 005°20'1 1.8
2018-Jan-09 11:59N 36°05' W 005°19'1 2.0
2018-Jan-09 11:30N 36°05' W 005°20'1 1.6
2018-Jan-09 11:00N 36°04' W 005°21'0 0.8
2018-Jan-09 10:30N 36°05' W 005°21'1 2.9
2018-Jan-09 10:00N 36°03' W 005°21'5 9.6
2018-Jan-09 09:30N 35°59' W 005°24'510.7
2018-Jan-09 09:00N 35°57' W 005°30'510.0
2018-Jan-09 08:30N 35°56' W 005°36'510.4
2018-Jan-09 08:00N 35°56' W 005°43'510.4
2018-Jan-09 07:30N 35°55' W 005°49'5 9.7
2018-Jan-09 07:00N 35°55' W 005°55'5 9.0
2018-Jan-09 06:30N 35°55' W 006°01'5 9.4
2018-Jan-09 06:00N 35°54' W 006°06'16 9.1
2018-Jan-09 04:16N 35°57' W 006°26'3 9.5
2018-Jan-09 03:59N 35°58' W 006°29'36 9.0
2018-Jan-09 00:00N 36°06' W 007°12'18910.1 320 / 101018.010.8 12.0-4.020.0
2018-Jan-08 05:17N 38°19' W 009°60'513.8
2018-Jan-08 04:56N 38°24' W 010°02'1714.1
2018-Jan-08 03:42N 38°40' W 010°07'314.2
2018-Jan-08 03:30N 38°43' W 010°07'714.1
2018-Jan-08 03:00N 38°50' W 010°07'713.9
2018-Jan-08 02:30N 38°57' W 010°07'714.0
2018-Jan-08 02:00N 39°04' W 010°07'714.1
2018-Jan-08 01:30N 39°11' W 010°07'714.0
2018-Jan-08 01:00N 39°18' W 010°07'18013.8
2018-Jan-07 12:00N 42°18' W 010°06'   360 / 211010.010.8 14.0-0.417.0
Track history (hours):
 
Tides and Currents Weather Stations Pressure Air Temp Water Temp Dewpoint Dewpoint Depression Visibility Wind Speed Wind Dir Waves Ship Positions

Lisbon

Last reported at 2018-Jan-17 00:00 UTC. Time now 2018-Jan-20 03:06 UTC.
Position N 33°12' E 026°48'.

Length 277 m; draft 11.5 m.

Type: Ship. MMSI: 255805675.

Wind from 270 at 16 knots

Barometer 1018.0 mb
Air temperature 17.0 ° C
Visibility: greater than 10.8 NM
Dewpoint 4.3 ° C
Water temperature 21.0 ° C

Date/timePositionNaut miles runAvg speedWind from/ knotsBaromVisibWave heightAir tempDewpointWater temp
2018-Jan-17 00:00N 33°12' E 026°48'33714.1 270 / 161018.010.8 17.0 4.321.0
2018-Jan-16 00:00N 34°48' E 020°18'34514.4 250 / 221025.010.8 15.0 1.219.0
2018-Jan-15 00:00N 36°24' E 013°30'   220 / 211022.010.8 14.0-0.419.0
2018-Jan-12 09:54N 36°06' W 004°22'1914.2
2018-Jan-12 08:35N 36°03' W 004°45'114.3
2018-Jan-12 08:30N 36°03' W 004°47'715.0
2018-Jan-12 08:01N 36°02' W 004°56'713.9
2018-Jan-12 07:31N 36°02' W 005°04'714.0
2018-Jan-12 07:00N 36°01' W 005°13'815.9
2018-Jan-12 06:31N 36°04' W 005°22'4 8.2
2018-Jan-12 06:01N 36°07' W 005°25'0 0.5
2018-Jan-12 05:29N 36°08' W 005°25'0 0.0
2018-Jan-12 04:58N 36°08' W 005°25'0 0.0
2018-Jan-12 04:30N 36°08' W 005°25'0 0.0
2018-Jan-12 03:56N 36°08' W 005°25'0 0.0
2018-Jan-12 03:28N 36°08' W 005°25'0 0.0
2018-Jan-12 02:58N 36°08' W 005°25'0 0.0
2018-Jan-12 02:30N 36°08' W 005°25'0 0.0
2018-Jan-12 02:00N 36°08' W 005°25'0 0.0
2018-Jan-12 01:30N 36°08' W 005°25'0 0.0
2018-Jan-12 01:00N 36°08' W 005°25'0 0.0
2018-Jan-12 00:30N 36°08' W 005°25'0 0.0
2018-Jan-11 23:59N 36°08' W 005°25'0 0.0
2018-Jan-11 23:30N 36°08' W 005°25'0 0.0
2018-Jan-11 23:00N 36°08' W 005°25'0 0.0
2018-Jan-11 22:29N 36°08' W 005°25'0 0.0
2018-Jan-11 21:58N 36°08' W 005°25'0 0.0
2018-Jan-11 21:22N 36°08' W 005°25'0 0.0
2018-Jan-11 20:58N 36°08' W 005°25'0 0.0
2018-Jan-11 20:28N 36°08' W 005°25'0 0.0
2018-Jan-11 19:58N 36°08' W 005°25'0 0.0
2018-Jan-11 19:30N 36°08' W 005°25'0 0.0
2018-Jan-11 18:57N 36°08' W 005°25'0 0.0
2018-Jan-11 18:30N 36°08' W 005°25'0 0.0
2018-Jan-11 18:00N 36°08' W 005°25'0 0.0
2018-Jan-11 17:30N 36°08' W 005°25'0 0.0
2018-Jan-11 16:56N 36°08' W 005°25'0 0.0
2018-Jan-11 16:29N 36°08' W 005°25'0 0.0
2018-Jan-11 15:59N 36°08' W 005°25'0 0.0
2018-Jan-11 15:29N 36°08' W 005°25'0 0.0
2018-Jan-11 14:55N 36°08' W 005°25'0 0.0
2018-Jan-11 14:28N 36°08' W 005°25'0 0.0
2018-Jan-11 13:58N 36°08' W 005°25'0 0.0
2018-Jan-11 13:28N 36°08' W 005°25'0 0.0
2018-Jan-11 12:58N 36°08' W 005°25'0 0.0
2018-Jan-11 12:29N 36°08' W 005°25'0 0.0
2018-Jan-11 12:00N 36°08' W 005°25'0 0.0
2018-Jan-11 11:15N 36°08' W 005°25'0 0.0
2018-Jan-11 11:00N 36°08' W 005°25'0 0.0
2018-Jan-11 10:30N 36°08' W 005°25'0 0.0
2018-Jan-11 09:59N 36°08' W 005°25'0 0.0
2018-Jan-11 09:26N 36°08' W 005°25'0 0.3
2018-Jan-11 09:00N 36°08' W 005°25'1 2.4
2018-Jan-11 08:30N 36°08' W 005°24'3 5.4
2018-Jan-11 08:00N 36°06' W 005°22'612.1
2018-Jan-11 07:30N 36°04' W 005°15'815.9
2018-Jan-11 07:00N 36°07' W 005°06'815.7
2018-Jan-11 06:30N 36°08' W 004°56'816.7
2018-Jan-11 06:00N 36°09' W 004°46'714.2
2018-Jan-11 05:30N 36°08' W 004°37'1 1.1
2018-Jan-11 04:57N 36°08' W 004°38'1 1.8
2018-Jan-11 04:30N 36°08' W 004°39'1 1.8
2018-Jan-11 03:59N 36°09' W 004°40'1 1.9
2018-Jan-11 03:26N 36°09' W 004°41'1 2.1
2018-Jan-11 03:00N 36°10' W 004°42'1 2.3
2018-Jan-11 02:30N 36°10' W 004°43'1 2.3
2018-Jan-11 01:59N 36°11' W 004°44'1 2.0
2018-Jan-11 01:30N 36°11' W 004°45'1 1.9
2018-Jan-11 01:00N 36°11' W 004°46'1 2.1
2018-Jan-11 00:30N 36°11' W 004°48'510.7
2018-Jan-11 00:00N 36°06' W 004°48'692.6 320 / 261025.010.8 14.0-0.419.0
2018-Jan-10 23:56N 36°12' W 004°49'1 2.3
2018-Jan-10 23:30N 36°12' W 004°51'1 2.2
2018-Jan-10 22:59N 36°12' W 004°52'1 2.6
2018-Jan-10 22:30N 36°12' W 004°54'1 2.7
2018-Jan-10 21:57N 36°12' W 004°55'1 2.5
2018-Jan-10 21:29N 36°11' W 004°57'1 2.6
2018-Jan-10 21:00N 36°11' W 004°58'1 2.4
2018-Jan-10 20:30N 36°10' W 004°60'1 2.1
2018-Jan-10 20:00N 36°10' W 005°01'1 2.1
2018-Jan-10 19:30N 36°09' W 005°02'1 2.2
2018-Jan-10 18:57N 36°09' W 005°03'1 2.5
2018-Jan-10 18:31N 36°08' W 005°04'2 3.6
2018-Jan-10 17:57N 36°07' W 005°02'3 7.2
2018-Jan-10 17:30N 36°06' W 004°58'4 7.1
2018-Jan-10 17:00N 36°07' W 004°54'612.7
2018-Jan-10 16:30N 36°08' W 004°46'713.9
2018-Jan-10 16:00N 36°08' W 004°37'511.0
2018-Jan-10 15:30N 36°08' W 004°31'7 9.9
2018-Jan-10 14:47N 36°09' W 004°22'7 2.6
2018-Jan-10 12:00N 36°12' W 004°30'21 2.4 270 / 211023.010.8 19.0 7.218.0
2018-Jan-10 03:19N 36°13' W 004°56'4 1.6
2018-Jan-10 00:45N 36°10' W 004°58'1 1.6
2018-Jan-10 00:22N 36°09' W 004°58'2 1.2
2018-Jan-09 22:58N 36°08' W 004°60'5 9.3
2018-Jan-09 22:27N 36°08' W 005°06'716.2
2018-Jan-09 22:00N 36°07' W 005°14'714.5
2018-Jan-09 21:30N 36°14' W 005°12'3 6.8
2018-Jan-09 21:00N 36°17' W 005°10'1 2.4
2018-Jan-09 20:30N 36°16' W 005°11'1 2.0
2018-Jan-09 20:00N 36°15' W 005°12'1 2.0
2018-Jan-09 19:30N 36°14' W 005°12'1 1.8
2018-Jan-09 19:00N 36°14' W 005°12'1 1.3
2018-Jan-09 18:30N 36°13' W 005°12'1 1.4
2018-Jan-09 18:00N 36°12' W 005°12'1 1.5
2018-Jan-09 17:30N 36°11' W 005°13'1 2.1
2018-Jan-09 17:00N 36°10' W 005°13'1 1.7
2018-Jan-09 16:30N 36°10' W 005°13'1 1.7
2018-Jan-09 16:00N 36°09' W 005°13'2 3.1
2018-Jan-09 15:28N 36°07' W 005°14'3 5.8
2018-Jan-09 15:00N 36°06' W 005°17'1 2.3
2018-Jan-09 14:30N 36°05' W 005°18'1 1.2
2018-Jan-09 14:00N 36°05' W 005°18'1 1.2
2018-Jan-09 13:30N 36°04' W 005°19'1 1.3
2018-Jan-09 13:00N 36°04' W 005°20'0 0.8
2018-Jan-09 12:30N 36°04' W 005°20'1 1.8
2018-Jan-09 11:59N 36°05' W 005°19'1 2.0
2018-Jan-09 11:30N 36°05' W 005°20'1 1.6
2018-Jan-09 11:00N 36°04' W 005°21'0 0.8
2018-Jan-09 10:30N 36°05' W 005°21'1 2.9
2018-Jan-09 10:00N 36°03' W 005°21'5 9.6
2018-Jan-09 09:30N 35°59' W 005°24'510.7
2018-Jan-09 09:00N 35°57' W 005°30'510.0
2018-Jan-09 08:30N 35°56' W 005°36'510.4
2018-Jan-09 08:00N 35°56' W 005°43'510.4
2018-Jan-09 07:30N 35°55' W 005°49'5 9.7
2018-Jan-09 07:00N 35°55' W 005°55'5 9.0
2018-Jan-09 06:30N 35°55' W 006°01'5 9.4
2018-Jan-09 06:00N 35°54' W 006°06'16 9.1
2018-Jan-09 04:16N 35°57' W 006°26'3 9.5
2018-Jan-09 03:59N 35°58' W 006°29'36 9.0
2018-Jan-09 00:00N 36°06' W 007°12'18910.1 320 / 101018.010.8 12.0-4.020.0
2018-Jan-08 05:17N 38°19' W 009°60'513.8
2018-Jan-08 04:56N 38°24' W 010°02'1714.1
2018-Jan-08 03:42N 38°40' W 010°07'314.2
2018-Jan-08 03:30N 38°43' W 010°07'714.1
2018-Jan-08 03:00N 38°50' W 010°07'713.9
2018-Jan-08 02:30N 38°57' W 010°07'714.0
2018-Jan-08 02:00N 39°04' W 010°07'714.1
2018-Jan-08 01:30N 39°11' W 010°07'714.0
2018-Jan-08 01:00N 39°18' W 010°07'18013.8
2018-Jan-07 12:00N 42°18' W 010°06'   360 / 211010.010.8 14.0-0.417.0

Dump ship's entire track history